Time;durP1;ratioP1;P1;durP2;ratioP2;P2;SDS_P1;SDS_P2;PMS_P1;PMS_P2;Temp;Humidity;BMP_temperature;BMP_pressure;BME280_temperature;BME280_humidity;BME280_pressure;Samples;Min_cycle;Max_cycle;Signal;HPM_P1;HPM_P2
2022/12/11 00:00:49;;;;;;;38.13;19.50;;;3.20;99.90;;;;;;5038241;28;20435;-36
2022/12/11 00:03:18;;;;;;;45.60;21.00;;;3.10;99.90;;;;;;5046448;28;20946;-36
2022/12/11 00:05:44;;;;;;;38.43;20.60;;;3.30;99.90;;;;;;5046465;28;20204;-36
2022/12/11 00:08:11;;;;;;;37.83;20.00;;;3.20;99.90;;;;;;5045169;28;20451;-36
2022/12/11 00:10:37;;;;;;;45.07;21.00;;;3.30;99.90;;;;;;5046194;28;20404;-36
2022/12/11 00:13:02;;;;;;;40.87;19.27;;;3.10;99.90;;;;;;5045367;28;20436;-36
2022/12/11 00:15:28;;;;;;;40.57;20.33;;;3.20;99.90;;;;;;5046609;28;20644;-36
2022/12/11 00:17:54;;;;;;;40.63;20.90;;;3.10;99.90;;;;;;5046507;28;20660;-36
2022/12/11 00:20:20;;;;;;;42.10;20.60;;;3.10;99.90;;;;;;5046317;28;20420;-36
2022/12/11 00:22:45;;;;;;;39.90;20.37;;;3.10;99.90;;;;;;5050205;28;20523;-36
2022/12/11 00:25:11;;;;;;;40.80;19.90;;;3.10;99.90;;;;;;5050216;28;20237;-37
2022/12/11 00:27:37;;;;;;;34.00;16.93;;;2.90;99.90;;;;;;5050048;28;20243;-36
2022/12/11 00:30:03;;;;;;;31.87;17.20;;;3.00;99.90;;;;;;5050112;28;20664;-36
2022/12/11 00:32:30;;;;;;;32.00;16.47;;;3.10;99.90;;;;;;5049976;28;20789;-36
2022/12/11 00:34:56;;;;;;;30.17;16.80;;;3.00;99.90;;;;;;5050463;28;20431;-36
2022/12/11 00:37:22;;;;;;;30.93;17.00;;;2.80;99.90;;;;;;5049889;28;20412;-36
2022/12/11 00:39:48;;;;;;;35.70;16.63;;;2.90;99.90;;;;;;5049629;28;20193;-36
2022/12/11 00:42:13;;;;;;;29.90;16.80;;;2.80;99.90;;;;;;5049478;28;20500;-37
2022/12/11 00:44:39;;;;;;;29.60;15.10;;;2.70;99.90;;;;;;5049637;28;20190;-36
2022/12/11 00:47:05;;;;;;;33.47;16.83;;;3.00;99.90;;;;;;5049833;28;20224;-36
2022/12/11 00:49:30;;;;;;;36.47;18.17;;;3.00;99.90;;;;;;5049461;28;20265;-36
2022/12/11 00:51:56;;;;;;;35.43;16.93;;;2.90;99.90;;;;;;5049661;28;20786;-36
2022/12/11 00:54:22;;;;;;;35.40;18.27;;;2.90;99.90;;;;;;5049246;28;20352;-36
2022/12/11 00:56:47;;;;;;;38.80;17.80;;;3.10;99.90;;;;;;5049321;28;20197;-37
2022/12/11 00:59:13;;;;;;;34.00;16.90;;;2.90;99.90;;;;;;5049108;28;20299;-36
2022/12/11 01:01:38;;;;;;;39.90;18.90;;;2.70;99.90;;;;;;5047854;28;20210;-36
2022/12/11 01:04:04;;;;;;;32.03;18.60;;;2.70;99.90;;;;;;5047594;28;20190;-36
2022/12/11 01:06:30;;;;;;;34.33;17.80;;;3.00;99.90;;;;;;5049608;28;20193;-36
2022/12/11 01:11:41;;;;;;;37.83;19.03;;;3.00;99.90;;;;;;5047076;28;20269;-36
2022/12/11 01:14:09;;;;;;;43.73;19.57;;;2.80;99.90;;;;;;5048769;28;20417;-36
2022/12/11 01:16:34;;;;;;;43.57;19.60;;;2.70;99.90;;;;;;5049214;28;20493;-36
2022/12/11 01:19:00;;;;;;;43.87;20.60;;;2.80;99.90;;;;;;5048621;28;20528;-36
2022/12/11 01:21:26;;;;;;;42.20;18.73;;;2.70;99.90;;;;;;5049175;28;20185;-36
2022/12/11 01:23:53;;;;;;;40.90;19.80;;;2.70;99.90;;;;;;5048300;28;20182;-36
2022/12/11 01:26:18;;;;;;;38.83;18.90;;;2.80;99.90;;;;;;5049139;28;20782;-36
2022/12/11 01:28:50;;;;;;;44.37;20.10;;;2.80;99.90;;;;;;5048540;28;20467;-36
2022/12/11 01:31:18;;;;;;;42.77;20.57;;;3.00;99.90;;;;;;5048912;28;20170;-37
2022/12/11 01:33:43;;;;;;;48.97;21.27;;;2.90;99.90;;;;;;5048240;28;20423;-36
2022/12/11 01:36:18;;;;;;;44.97;19.30;;;2.90;99.90;;;;;;5048449;28;20810;-36
2022/12/11 01:38:46;;;;;;;46.00;20.70;;;2.70;99.90;;;;;;5048489;28;20192;-36
2022/12/11 01:41:12;;;;;;;47.37;19.67;;;2.80;99.90;;;;;;5048568;28;20798;-37
2022/12/11 01:43:58;;;;;;;47.27;22.00;;;2.90;99.90;;;;;;5048498;28;20486;-36
2022/12/11 01:46:25;;;;;;;46.03;21.20;;;2.90;99.90;;;;;;5048400;28;20451;-36
2022/12/11 01:48:53;;;;;;;49.80;22.70;;;2.90;99.90;;;;;;5047974;28;20451;-36
2022/12/11 01:51:19;;;;;;;47.13;21.60;;;2.90;99.90;;;;;;5048568;28;20412;-36
2022/12/11 01:53:50;;;;;;;45.33;20.47;;;2.80;99.90;;;;;;5048216;28;20881;-36
2022/12/11 01:56:16;;;;;;;43.80;21.07;;;2.90;99.90;;;;;;5048471;28;20897;-36
2022/12/11 01:59:06;;;;;;;49.30;23.30;;;3.00;99.90;;;;;;5048147;28;21111;-36
2022/12/11 02:01:49;;;;;;;53.13;21.73;;;3.00;99.90;;;;;;5030035;28;20555;-36
2022/12/11 02:04:15;;;;;;;43.93;20.87;;;2.80;99.90;;;;;;5048233;28;20485;-36
2022/12/11 02:06:46;;;;;;;50.93;22.33;;;2.90;99.90;;;;;;5046527;28;20822;-36
2022/12/11 02:09:25;;;;;;;47.70;24.00;;;2.90;99.90;;;;;;5047836;28;20482;-36
2022/12/11 02:11:54;;;;;;;45.77;20.53;;;2.90;99.90;;;;;;5047825;28;20408;-36
2022/12/11 02:14:31;;;;;;;46.97;22.60;;;2.70;99.90;;;;;;5047822;28;20491;-36
2022/12/11 02:17:10;;;;;;;45.57;21.17;;;2.80;99.90;;;;;;5046337;28;20905;-36
2022/12/11 02:19:51;;;;;;;46.57;20.17;;;2.70;99.90;;;;;;5047596;28;20412;-36
2022/12/11 02:22:54;;;;;;;53.77;20.53;;;2.90;99.90;;;;;;5047350;28;20419;-36
2022/12/11 02:25:44;;;;;;;46.90;21.53;;;2.70;99.90;;;;;;5047965;28;20408;-36
2022/12/11 02:28:33;;;;;;;44.80;21.57;;;2.70;99.90;;;;;;5047940;28;20777;-36
2022/12/11 02:31:22;;;;;;;53.70;22.43;;;2.80;99.90;;;;;;5047906;28;20405;-36
2022/12/11 02:33:57;;;;;;;49.97;21.17;;;2.80;99.90;;;;;;5047534;28;20423;-37
2022/12/11 02:36:26;;;;;;;44.43;22.60;;;2.90;99.90;;;;;;5047641;28;20431;-36
2022/12/11 02:38:55;;;;;;;46.70;21.33;;;2.70;99.90;;;;;;5047141;28;20424;-36
2022/12/11 02:41:23;;;;;;;49.83;23.00;;;2.70;99.90;;;;;;5046141;28;20482;-37
2022/12/11 02:43:49;;;;;;;46.43;22.63;;;2.70;99.90;;;;;;5046984;28;20642;-36
2022/12/11 02:46:18;;;;;;;46.63;23.60;;;2.70;99.90;;;;;;5047228;28;20481;-36
2022/12/11 02:48:46;;;;;;;51.77;22.93;;;3.00;99.90;;;;;;5047175;28;20468;-36
2022/12/11 02:51:14;;;;;;;49.17;22.87;;;2.90;99.90;;;;;;5045732;28;21055;-36
2022/12/11 02:53:43;;;;;;;52.87;22.37;;;2.70;99.90;;;;;;5047083;28;20427;-36
2022/12/11 02:56:55;;;;;;;50.30;23.03;;;2.90;99.90;;;;;;5047370;28;20782;-36
2022/12/11 02:59:36;;;;;;;54.07;24.20;;;2.90;99.90;;;;;;5045238;28;20426;-36
2022/12/11 03:02:03;;;;;;;55.50;24.97;;;2.90;99.90;;;;;;5047302;28;20495;-36
2022/12/11 03:04:29;;;;;;;54.13;24.30;;;2.70;99.90;;;;;;5046759;28;20427;-36
2022/12/11 03:07:00;;;;;;;49.10;24.27;;;2.70;99.90;;;;;;5046951;28;20990;-36
2022/12/11 03:09:28;;;;;;;51.97;23.20;;;2.80;99.90;;;;;;5046781;28;20840;-36
2022/12/11 03:11:54;;;;;;;59.03;26.73;;;2.90;99.90;;;;;;5043203;28;21120;-36
2022/12/11 03:14:19;;;;;;;53.03;25.03;;;2.80;99.90;;;;;;5042366;28;20425;-36
2022/12/11 03:17:02;;;;;;;51.93;26.23;;;2.80;99.90;;;;;;5047091;28;20186;-36
2022/12/11 03:19:36;;;;;;;47.97;21.57;;;2.80;99.90;;;;;;5046689;28;20186;-36
2022/12/11 03:22:17;;;;;;;39.50;20.40;;;3.00;99.90;;;;;;5046958;28;20419;-36
2022/12/11 03:24:46;;;;;;;40.63;20.57;;;2.80;99.90;;;;;;5046718;28;20427;-37
2022/12/11 03:27:24;;;;;;;43.93;21.50;;;2.70;99.90;;;;;;5046651;28;20819;-36
2022/12/11 03:30:04;;;;;;;40.13;20.50;;;2.90;99.90;;;;;;5026732;28;20433;-36
2022/12/11 03:32:50;;;;;;;39.20;19.03;;;2.90;99.90;;;;;;5026549;28;20436;-35
2022/12/11 03:35:36;;;;;;;35.77;19.07;;;2.80;99.90;;;;;;5027304;28;20771;-36
2022/12/11 03:38:05;;;;;;;36.10;19.00;;;2.70;99.90;;;;;;5025479;28;20513;-37
2022/12/11 03:40:34;;;;;;;35.97;17.03;;;2.80;99.90;;;;;;5026693;28;20534;-37
2022/12/11 03:43:00;;;;;;;36.43;19.80;;;2.80;99.90;;;;;;5041674;28;20497;-37
2022/12/11 03:45:27;;;;;;;40.77;17.93;;;2.70;99.90;;;;;;5047082;28;20428;-37
2022/12/11 03:47:56;;;;;;;32.87;18.80;;;2.90;99.90;;;;;;5046736;28;20475;-36
2022/12/11 03:50:27;;;;;;;41.80;19.60;;;2.90;99.90;;;;;;5046517;28;20420;-37
2022/12/11 03:52:54;;;;;;;36.10;18.17;;;2.70;99.90;;;;;;5026730;28;20414;-37
2022/12/11 03:55:21;;;;;;;37.43;18.10;;;2.80;99.90;;;;;;5027063;28;20928;-36
2022/12/11 03:57:47;;;;;;;35.97;16.97;;;2.80;99.90;;;;;;5030832;28;20486;-37
2022/12/11 04:00:16;;;;;;;33.67;16.77;;;2.90;99.90;;;;;;5030264;28;20425;-37
2022/12/11 04:02:43;;;;;;;36.70;19.27;;;2.60;99.90;;;;;;5030647;28;20419;-36
2022/12/11 04:05:10;;;;;;;38.27;18.77;;;3.00;99.90;;;;;;5030669;28;20441;-37
2022/12/11 04:07:36;;;;;;;31.37;17.17;;;2.60;99.90;;;;;;5029695;28;20457;-36
2022/12/11 04:10:02;;;;;;;38.50;20.07;;;2.70;99.90;;;;;;5030333;28;20553;-37
2022/12/11 04:12:28;;;;;;;39.57;18.17;;;2.70;99.90;;;;;;5044404;28;20652;-37
2022/12/11 04:15:02;;;;;;;32.70;18.40;;;2.80;99.90;;;;;;5050105;28;20532;-36
2022/12/11 04:26:07;;;;;;;38.17;17.83;;;2.70;99.90;;;;;;5050623;28;20777;-36
2022/12/11 04:28:33;;;;;;;35.23;16.77;;;2.70;99.90;;;;;;5049691;28;20467;-36
2022/12/11 04:30:59;;;;;;;32.00;17.40;;;2.80;99.90;;;;;;5048582;28;20435;-36
2022/12/11 04:33:24;;;;;;;31.37;17.10;;;2.80;99.90;;;;;;5049457;28;20261;-36
2022/12/11 04:35:50;;;;;;;33.00;17.33;;;2.80;99.90;;;;;;5049999;28;20620;-36
2022/12/11 04:38:16;;;;;;;35.57;17.07;;;2.60;99.90;;;;;;5048647;28;20232;-36
2022/12/11 04:40:41;;;;;;;35.30;17.17;;;2.70;99.90;;;;;;5049283;28;20212;-36
2022/12/11 04:43:07;;;;;;;39.83;19.67;;;2.70;99.90;;;;;;5049670;28;20204;-36
2022/12/11 04:45:33;;;;;;;41.57;22.23;;;2.90;99.90;;;;;;5050194;28;20666;-36
2022/12/11 04:47:58;;;;;;;53.80;31.23;;;2.70;99.90;;;;;;5049355;28;20201;-36
2022/12/11 04:50:24;;;;;;;35.10;19.20;;;2.90;99.90;;;;;;5049721;28;20209;-36
2022/12/11 04:52:54;;;;;;;33.20;15.97;;;3.00;99.90;;;;;;5048139;28;20189;-36
2022/12/11 04:55:19;;;;;;;38.23;18.60;;;2.70;99.90;;;;;;5049560;28;20526;-36
2022/12/11 04:57:45;;;;;;;34.77;16.17;;;2.70;99.90;;;;;;5049332;28;20526;-36
2022/12/11 05:00:12;;;;;;;37.47;18.60;;;2.80;99.90;;;;;;5049402;28;20370;-36
2022/12/11 05:02:39;;;;;;;35.63;17.37;;;2.80;99.90;;;;;;5048406;28;20211;-36
2022/12/11 05:05:08;;;;;;;31.33;16.37;;;2.80;99.90;;;;;;5049395;28;20444;-36
2022/12/11 05:07:35;;;;;;;31.17;17.50;;;2.50;99.90;;;;;;5047479;28;20495;-36
2022/12/11 05:10:01;;;;;;;36.30;16.83;;;2.90;99.90;;;;;;5049301;28;20424;-37
2022/12/11 05:12:27;;;;;;;35.43;16.87;;;2.60;99.90;;;;;;5049033;28;20503;-36
2022/12/11 05:14:53;;;;;;;33.27;15.97;;;2.50;99.90;;;;;;5049439;28;20512;-37
2022/12/11 05:17:20;;;;;;;37.40;16.73;;;2.80;99.90;;;;;;5049099;28;20489;-37
2022/12/11 05:19:47;;;;;;;32.83;16.50;;;2.50;99.90;;;;;;5049030;28;20772;-37
2022/12/11 05:22:14;;;;;;;34.67;17.40;;;2.50;99.90;;;;;;5049109;28;20511;-37
2022/12/11 05:24:39;;;;;;;30.57;16.20;;;2.70;99.90;;;;;;5048559;28;20799;-37
2022/12/11 05:27:05;;;;;;;43.03;24.70;;;2.60;99.90;;;;;;5049127;28;20424;-37
2022/12/11 05:29:31;;;;;;;36.47;17.67;;;2.60;99.90;;;;;;5048321;28;20187;-37
2022/12/11 05:31:59;;;;;;;32.47;16.50;;;2.70;99.90;;;;;;5047770;28;20452;-36
2022/12/11 05:34:25;;;;;;;32.77;17.80;;;2.80;99.90;;;;;;5047032;28;20208;-37
2022/12/11 05:36:50;;;;;;;31.53;15.77;;;2.70;99.90;;;;;;5049145;28;20594;-36
2022/12/11 05:39:16;;;;;;;32.70;18.70;;;2.60;99.90;;;;;;5048334;28;20182;-36
2022/12/11 05:41:41;;;;;;;37.47;20.07;;;2.70;99.90;;;;;;5048866;28;20186;-37
2022/12/11 05:44:11;;;;;;;34.77;17.07;;;2.50;99.90;;;;;;5046061;28;20185;-37
2022/12/11 05:46:37;;;;;;;32.73;17.00;;;2.50;99.90;;;;;;5048484;28;20193;-37
2022/12/11 05:49:03;;;;;;;31.63;15.83;;;2.70;99.90;;;;;;5048434;28;20471;-37
2022/12/11 05:51:29;;;;;;;35.37;16.63;;;2.70;99.90;;;;;;5048563;28;20424;-37
2022/12/11 05:53:56;;;;;;;33.30;16.10;;;2.70;99.90;;;;;;5048316;28;20643;-36
2022/12/11 05:56:33;;;;;;;29.80;16.37;;;2.70;99.90;;;;;;5048487;28;20189;-36
2022/12/11 05:58:59;;;;;;;28.20;16.10;;;2.80;99.90;;;;;;5048178;28;20416;-36
2022/12/11 06:01:31;;;;;;;25.97;14.60;;;2.60;99.90;;;;;;5048283;28;20424;-36
2022/12/11 06:03:58;;;;;;;31.03;16.47;;;2.50;99.90;;;;;;5046886;28;20424;-36
2022/12/11 06:06:24;;;;;;;36.60;17.37;;;2.50;99.90;;;;;;5048091;28;20448;-36
2022/12/11 06:08:55;;;;;;;33.90;16.67;;;2.70;99.90;;;;;;5047107;28;20464;-36
2022/12/11 06:11:21;;;;;;;30.77;15.13;;;2.60;99.90;;;;;;5047941;28;20416;-36
2022/12/11 06:13:47;;;;;;;28.27;16.00;;;2.50;99.90;;;;;;5048071;28;20416;-36
2022/12/11 06:16:13;;;;;;;30.90;15.77;;;2.70;99.90;;;;;;5030093;28;20417;-36
2022/12/11 06:18:41;;;;;;;35.47;17.43;;;2.50;99.90;;;;;;5047448;28;20185;-37
2022/12/11 06:21:27;;;;;;;29.90;16.10;;;2.60;99.90;;;;;;5048214;28;20417;-36
2022/12/11 06:23:54;;;;;;;29.30;16.30;;;2.50;99.90;;;;;;5047745;28;20581;-36
2022/12/11 06:26:21;;;;;;;31.87;15.97;;;2.50;99.90;;;;;;5047997;28;20439;-37
2022/12/11 06:28:47;;;;;;;31.80;16.20;;;2.50;99.90;;;;;;5047396;28;20471;-37
2022/12/11 06:31:13;;;;;;;29.33;15.37;;;2.50;99.90;;;;;;5048091;28;20523;-37
2022/12/11 06:33:39;;;;;;;30.53;15.73;;;2.50;99.90;;;;;;5047560;28;20409;-36
2022/12/11 06:36:08;;;;;;;28.27;16.10;;;2.70;99.90;;;;;;5048039;28;20428;-36
2022/12/11 06:38:34;;;;;;;25.87;13.47;;;2.50;99.90;;;;;;5047173;28;20428;-36
2022/12/11 06:41:03;;;;;;;30.17;15.10;;;2.60;99.90;;;;;;5047912;28;20682;-36
2022/12/11 06:43:30;;;;;;;26.30;12.97;;;2.60;99.90;;;;;;5047284;28;20415;-36
2022/12/11 06:45:56;;;;;;;27.20;14.30;;;2.60;99.90;;;;;;5047950;28;20435;-36
2022/12/11 06:48:21;;;;;;;27.07;14.80;;;2.70;99.90;;;;;;5045924;28;20456;-36
2022/12/11 06:50:47;;;;;;;28.77;15.97;;;2.60;99.90;;;;;;5047510;28;20246;-37
2022/12/11 06:53:13;;;;;;;28.80;13.43;;;2.70;99.90;;;;;;5047441;28;20679;-36
2022/12/11 06:55:40;;;;;;;24.43;14.97;;;2.60;99.90;;;;;;5047765;28;20186;-36
2022/12/11 06:58:06;;;;;;;24.30;14.40;;;2.70;99.90;;;;;;5047967;28;20442;-37
2022/12/11 07:00:34;;;;;;;26.80;16.87;;;2.80;99.90;;;;;;5045677;28;20428;-37
2022/12/11 07:03:00;;;;;;;27.97;14.10;;;2.60;99.90;;;;;;5047057;28;20420;-36
2022/12/11 07:05:25;;;;;;;25.23;13.60;;;2.80;99.90;;;;;;5047023;28;20436;-37
2022/12/11 07:07:54;;;;;;;26.67;15.40;;;2.70;99.90;;;;;;5046365;28;20221;-37
2022/12/11 07:10:20;;;;;;;26.03;15.10;;;2.80;99.90;;;;;;5046847;28;20186;-36
2022/12/11 07:12:46;;;;;;;26.00;13.97;;;2.90;99.90;;;;;;5041694;28;20475;-37
2022/12/11 07:15:12;;;;;;;30.50;15.00;;;2.60;99.90;;;;;;5045677;28;20863;-37
2022/12/11 07:17:37;;;;;;;27.70;13.53;;;2.80;99.90;;;;;;5042093;28;20208;-37
2022/12/11 07:20:04;;;;;;;25.20;14.47;;;2.70;99.90;;;;;;5044963;28;20193;-36
2022/12/11 07:22:29;;;;;;;27.30;14.43;;;2.80;99.90;;;;;;5047035;28;20617;-36
2022/12/11 07:24:55;;;;;;;26.83;13.47;;;2.60;99.90;;;;;;5045774;28;20501;-36
2022/12/11 07:27:21;;;;;;;25.00;14.67;;;2.90;99.90;;;;;;5046832;28;20211;-37
2022/12/11 07:29:47;;;;;;;24.53;13.47;;;2.60;99.90;;;;;;5046903;28;20416;-37
2022/12/11 07:32:13;;;;;;;25.20;14.83;;;2.80;99.90;;;;;;5044979;28;20185;-36
2022/12/11 07:34:39;;;;;;;24.07;13.10;;;2.80;99.90;;;;;;5046638;28;20181;-37
2022/12/11 07:37:04;;;;;;;24.47;12.90;;;2.60;99.90;;;;;;5047636;28;20439;-37
2022/12/11 07:39:30;;;;;;;22.33;12.07;;;2.70;99.90;;;;;;5047062;28;20201;-37
2022/12/11 07:41:55;;;;;;;23.97;14.30;;;2.60;99.90;;;;;;5047026;28;20572;-36
2022/12/11 07:44:21;;;;;;;23.03;12.57;;;2.70;99.90;;;;;;5046767;28;20672;-37
2022/12/11 07:46:47;;;;;;;23.93;12.60;;;2.80;99.90;;;;;;5028942;28;20535;-36
2022/12/11 07:49:12;;;;;;;21.00;13.17;;;2.90;99.90;;;;;;5046340;28;20216;-36
2022/12/11 07:51:38;;;;;;;25.23;13.97;;;2.80;99.90;;;;;;5044515;28;20208;-36
2022/12/11 07:54:11;;;;;;;25.03;16.07;;;3.00;99.90;;;;;;5046543;28;20181;-36
2022/12/11 07:56:37;;;;;;;24.20;13.30;;;2.90;99.90;;;;;;5047065;28;20649;-37
2022/12/11 07:59:04;;;;;;;25.60;14.40;;;3.00;99.90;;;;;;5046517;28;20474;-37
2022/12/11 08:01:32;;;;;;;26.73;16.50;;;2.70;99.90;;;;;;5047094;28;20511;-36
2022/12/11 08:03:58;;;;;;;28.20;14.67;;;2.70;99.90;;;;;;5046067;28;20434;-36
2022/12/11 08:06:27;;;;;;;25.13;14.93;;;2.80;99.90;;;;;;5045106;28;20891;-36
2022/12/11 08:08:54;;;;;;;27.03;14.57;;;2.80;99.90;;;;;;5045342;28;20214;-37
2022/12/11 08:11:19;;;;;;;26.80;15.07;;;2.80;99.90;;;;;;5045596;28;20448;-37
2022/12/11 08:13:45;;;;;;;39.90;23.93;;;3.00;99.90;;;;;;5046800;28;20529;-37
2022/12/11 08:16:12;;;;;;;31.40;17.00;;;2.70;99.90;;;;;;5046579;28;20184;-37
2022/12/11 08:18:39;;;;;;;30.50;20.10;;;2.60;99.90;;;;;;5045862;28;20592;-38
2022/12/11 08:21:14;;;;;;;24.93;14.43;;;2.80;99.90;;;;;;5045303;28;20432;-37
2022/12/11 08:23:40;;;;;;;24.63;14.40;;;2.80;99.90;;;;;;5046745;28;20499;-36
2022/12/11 08:26:08;;;;;;;20.43;13.03;;;2.80;99.90;;;;;;5042860;28;20944;-36
2022/12/11 08:28:35;;;;;;;34.33;20.23;;;2.70;99.90;;;;;;5039294;28;20460;-36
2022/12/11 08:31:04;;;;;;;32.60;19.40;;;2.70;99.90;;;;;;5046417;28;20424;-36
2022/12/11 08:33:30;;;;;;;35.53;23.77;;;2.80;99.90;;;;;;5046212;28;20418;-36
2022/12/11 08:35:57;;;;;;;29.23;16.73;;;2.60;99.90;;;;;;5046536;28;21272;-36
2022/12/11 08:38:23;;;;;;;31.90;19.37;;;2.60;99.90;;;;;;5044337;28;20432;-36
2022/12/11 08:40:48;;;;;;;25.03;13.60;;;2.60;99.90;;;;;;5044858;28;20493;-37
2022/12/11 08:43:14;;;;;;;30.30;16.70;;;2.60;99.90;;;;;;5047969;28;20205;-37
2022/12/11 08:45:39;;;;;;;26.40;15.23;;;2.90;99.90;;;;;;5049385;28;20181;-37
2022/12/11 08:48:05;;;;;;;26.70;17.60;;;2.80;99.90;;;;;;5048557;28;20217;-37
2022/12/11 08:50:31;;;;;;;24.50;13.87;;;2.80;99.90;;;;;;5048989;28;20658;-38
2022/12/11 08:52:57;;;;;;;26.93;14.70;;;2.70;99.90;;;;;;5049398;28;20608;-37
2022/12/11 08:55:23;;;;;;;26.97;18.00;;;2.80;99.90;;;;;;5050001;28;20236;-37
2022/12/11 08:57:49;;;;;;;29.20;15.33;;;3.00;99.90;;;;;;5043202;28;20216;-36
2022/12/11 09:00:15;;;;;;;27.13;16.20;;;2.80;99.90;;;;;;5048427;28;20435;-36
2022/12/11 09:02:41;;;;;;;33.20;18.77;;;2.90;99.90;;;;;;5049240;28;20460;-36
2022/12/11 09:05:08;;;;;;;24.03;14.60;;;3.00;99.90;;;;;;5049691;28;20471;-36
2022/12/11 09:07:35;;;;;;;28.10;14.67;;;2.70;99.90;;;;;;5047816;28;20304;-36
2022/12/11 09:10:01;;;;;;;24.97;15.10;;;2.90;99.90;;;;;;5049060;28;20565;-36
2022/12/11 09:12:27;;;;;;;27.17;16.67;;;2.70;99.90;;;;;;5039664;28;20528;-36
2022/12/11 09:14:53;;;;;;;33.83;18.90;;;3.00;99.90;;;;;;5039426;28;20791;-37
2022/12/11 09:17:19;;;;;;;46.17;27.63;;;2.80;99.90;;;;;;5034631;28;20432;-36
2022/12/11 09:19:44;;;;;;;38.43;20.63;;;3.00;99.90;;;;;;5033892;28;20221;-36
2022/12/11 09:22:11;;;;;;;118.20;59.20;;;2.90;99.90;;;;;;5039105;28;20591;-36
2022/12/11 09:24:38;;;;;;;32.47;17.83;;;3.10;99.90;;;;;;5045537;28;20513;-37
2022/12/11 09:27:04;;;;;;;33.47;16.40;;;2.90;99.90;;;;;;5039501;28;20469;-36
2022/12/11 09:29:30;;;;;;;30.60;16.43;;;2.90;99.90;;;;;;5036038;28;20811;-37
2022/12/11 09:31:56;;;;;;;30.23;16.47;;;3.00;99.90;;;;;;5043317;28;20489;-36
2022/12/11 09:34:22;;;;;;;33.70;19.10;;;2.90;99.90;;;;;;5047603;28;20889;-37
2022/12/11 09:36:47;;;;;;;26.93;15.10;;;3.00;99.90;;;;;;5037911;28;20629;-37
2022/12/11 09:39:15;;;;;;;26.43;16.03;;;2.70;99.90;;;;;;5040108;28;20205;-36
2022/12/11 09:42:25;;;;;;;29.80;15.60;;;2.80;99.90;;;;;;5042564;28;20229;-36
2022/12/11 09:45:03;;;;;;;26.57;15.17;;;2.80;99.90;;;;;;5034867;28;20440;-37
2022/12/11 09:47:31;;;;;;;26.40;15.50;;;2.80;99.90;;;;;;5045114;28;20472;-37
2022/12/11 09:50:09;;;;;;;32.33;17.20;;;2.80;99.90;;;;;;5041845;28;20476;-37
2022/12/11 09:52:37;;;;;;;23.97;13.60;;;2.70;99.90;;;;;;5038794;28;20810;-36
2022/12/11 09:55:13;;;;;;;29.47;15.80;;;2.80;99.90;;;;;;5043987;28;20527;-37
2022/12/11 09:57:57;;;;;;;25.43;14.50;;;2.70;99.90;;;;;;5049503;28;20421;-38
2022/12/11 10:00:38;;;;;;;31.30;18.10;;;2.70;99.90;;;;;;5027986;28;20452;-38
2022/12/11 10:03:26;;;;;;;25.57;15.40;;;2.90;99.90;;;;;;5028502;28;20425;-36
2022/12/11 10:06:01;;;;;;;31.30;17.70;;;2.80;99.90;;;;;;5027910;28;20526;-33
2022/12/11 10:08:53;;;;;;;29.97;16.47;;;2.90;99.90;;;;;;5027505;28;20459;-39
2022/12/11 10:11:22;;;;;;;30.70;16.33;;;3.00;99.90;;;;;;5028475;28;20516;-41
2022/12/11 10:14:01;;;;;;;27.13;17.10;;;3.10;99.90;;;;;;5026958;28;20425;-37
2022/12/11 10:16:44;;;;;;;28.17;14.93;;;3.10;99.90;;;;;;5028219;28;20436;-41
2022/12/11 10:19:20;;;;;;;26.17;15.70;;;3.30;99.90;;;;;;5036193;28;20412;-39
2022/12/11 10:21:49;;;;;;;28.67;16.10;;;3.20;99.90;;;;;;5047787;28;20422;-39
2022/12/11 10:24:19;;;;;;;25.50;15.43;;;3.00;99.90;;;;;;5039562;28;20431;-40
2022/12/11 10:26:45;;;;;;;29.13;15.50;;;3.10;99.90;;;;;;5035185;28;20686;-41
2022/12/11 10:29:14;;;;;;;28.23;15.70;;;3.10;99.90;;;;;;5036684;28;20453;-39
2022/12/11 10:31:58;;;;;;;29.00;14.93;;;2.90;99.90;;;;;;5027768;28;20479;-42
2022/12/11 10:34:34;;;;;;;24.27;14.53;;;2.90;99.90;;;;;;5026507;28;20433;-41
2022/12/11 10:37:01;;;;;;;22.30;13.53;;;3.10;99.90;;;;;;5028348;28;20425;-42
2022/12/11 10:39:27;;;;;;;25.60;14.50;;;3.00;99.90;;;;;;5027259;28;20433;-42
2022/12/11 10:41:54;;;;;;;22.53;13.37;;;3.10;99.90;;;;;;5026958;28;20423;-39
2022/12/11 10:44:28;;;;;;;25.63;14.77;;;3.00;99.90;;;;;;5027061;28;20182;-37
2022/12/11 10:47:05;;;;;;;22.07;14.23;;;3.30;99.90;;;;;;5028419;28;20447;-38
2022/12/11 10:49:34;;;;;;;22.57;13.97;;;3.00;99.90;;;;;;5043664;28;20508;-41
2022/12/11 10:52:01;;;;;;;22.60;14.30;;;2.90;99.90;;;;;;5036837;28;20416;-40
2022/12/11 10:54:31;;;;;;;21.23;13.40;;;3.30;99.90;;;;;;5035127;28;20760;-41
2022/12/11 10:56:59;;;;;;;24.43;13.03;;;3.30;99.90;;;;;;5037805;28;20416;-39
2022/12/11 10:59:44;;;;;;;25.00;13.70;;;3.10;99.90;;;;;;5037702;28;20817;-39
2022/12/11 11:02:31;;;;;;;19.87;12.30;;;3.10;99.90;;;;;;5034495;28;20426;-39
2022/12/11 11:04:59;;;;;;;21.23;13.40;;;3.20;99.90;;;;;;5029009;28;20441;-39
2022/12/11 11:07:27;;;;;;;18.03;12.20;;;3.20;99.90;;;;;;5025252;28;20861;-41
2022/12/11 11:10:09;;;;;;;22.17;13.07;;;3.00;99.90;;;;;;5027257;28;20433;-43
2022/12/11 11:12:46;;;;;;;21.70;11.27;;;3.00;99.90;;;;;;5034450;28;20416;-38
2022/12/11 11:15:26;;;;;;;19.70;11.40;;;3.00;99.90;;;;;;5047356;28;20444;-42
2022/12/11 11:17:54;;;;;;;17.97;10.20;;;3.10;99.90;;;;;;5039427;28;20443;-39
2022/12/11 11:20:29;;;;;;;20.73;11.73;;;3.20;99.90;;;;;;5043144;28;20409;-40
2022/12/11 11:22:58;;;;;;;19.07;11.03;;;3.20;99.90;;;;;;5035294;28;20489;-39
2022/12/11 11:25:26;;;;;;;22.03;12.73;;;3.00;99.90;;;;;;5047244;28;20442;-40
2022/12/11 11:27:54;;;;;;;21.87;14.87;;;3.00;99.90;;;;;;5042690;28;20468;-40
2022/12/11 11:30:24;;;;;;;23.10;14.03;;;2.90;99.90;;;;;;5042795;28;20420;-42
2022/12/11 11:32:54;;;;;;;24.00;13.97;;;3.20;99.90;;;;;;5042944;28;20420;-40
2022/12/11 11:35:25;;;;;;;19.80;11.70;;;3.00;99.90;;;;;;5030383;28;20433;-36
2022/12/11 11:38:12;;;;;;;19.70;11.40;;;3.00;99.90;;;;;;5027232;28;20945;-41
2022/12/11 11:40:55;;;;;;;18.10;10.97;;;3.20;99.90;;;;;;5033430;28;20420;-41
2022/12/11 11:43:36;;;;;;;18.50;11.73;;;3.00;99.90;;;;;;5047037;28;20424;-39
2022/12/11 11:46:28;;;;;;;19.00;11.47;;;2.90;99.90;;;;;;5047039;28;20428;-42
2022/12/11 11:49:11;;;;;;;17.77;11.50;;;3.20;99.90;;;;;;5043956;28;20468;-41
2022/12/11 11:51:48;;;;;;;25.40;13.33;;;3.00;99.90;;;;;;5046985;28;20503;-41
2022/12/11 11:54:29;;;;;;;18.30;11.80;;;3.20;99.90;;;;;;5047139;28;20605;-40
2022/12/11 11:56:55;;;;;;;21.40;13.40;;;3.10;99.90;;;;;;5047394;28;20696;-42
2022/12/11 11:59:33;;;;;;;21.70;12.57;;;3.00;99.90;;;;;;5046882;28;20454;-41
2022/12/11 12:01:59;;;;;;;24.40;13.57;;;3.10;99.90;;;;;;5047200;28;20412;-42
2022/12/11 12:04:32;;;;;;;19.33;12.90;;;3.10;99.90;;;;;;5041647;28;20957;-38
2022/12/11 12:07:09;;;;;;;22.80;13.00;;;3.10;99.90;;;;;;5031793;28;20794;-40
2022/12/11 12:09:54;;;;;;;25.67;13.63;;;3.10;99.90;;;;;;5034731;28;20424;-40
2022/12/11 12:12:35;;;;;;;24.00;13.50;;;2.90;99.90;;;;;;5034116;28;20409;-38
2022/12/11 12:15:19;;;;;;;20.83;12.67;;;3.00;99.90;;;;;;5037619;28;20474;-39
2022/12/11 12:17:52;;;;;;;21.53;13.67;;;3.10;99.90;;;;;;5028970;28;20413;-38
2022/12/11 12:20:28;;;;;;;22.43;13.23;;;3.00;99.90;;;;;;5031619;28;20510;-38
2022/12/11 12:23:06;;;;;;;23.50;13.30;;;3.00;99.90;;;;;;5044413;28;20436;-34
2022/12/11 12:25:41;;;;;;;25.10;12.60;;;3.30;99.90;;;;;;5046005;28;20803;-36
2022/12/11 12:28:40;;;;;;;20.97;14.43;;;3.20;99.90;;;;;;5045931;28;20838;-34
2022/12/11 12:31:14;;;;;;;21.77;13.50;;;3.20;99.90;;;;;;5037504;28;20493;-38
2022/12/11 12:33:58;;;;;;;24.10;15.03;;;3.00;99.90;;;;;;5036021;28;20452;-37
2022/12/11 12:36:50;;;;;;;24.10;14.50;;;3.00;99.90;;;;;;5048107;28;20436;-38
2022/12/11 12:39:37;;;;;;;20.77;15.50;;;3.20;99.90;;;;;;5038926;28;20555;-38
2022/12/11 12:42:13;;;;;;;23.40;14.57;;;3.10;99.90;;;;;;5045700;28;20460;-38
2022/12/11 12:45:11;;;;;;;23.60;15.23;;;3.20;99.90;;;;;;5047433;28;20451;-41
2022/12/11 12:47:38;;;;;;;26.63;15.43;;;3.20;99.90;;;;;;5038297;28;20613;-36
2022/12/11 12:50:11;;;;;;;26.60;15.17;;;3.30;99.90;;;;;;5044646;28;20463;-41
2022/12/11 12:52:39;;;;;;;22.73;13.00;;;3.30;99.90;;;;;;5047243;28;20440;-38
2022/12/11 12:55:21;;;;;;;21.83;13.87;;;3.20;99.90;;;;;;5048816;28;20483;-37
2022/12/11 12:58:06;;;;;;;23.20;13.27;;;3.30;99.90;;;;;;5043521;28;20890;-38
2022/12/11 13:00:41;;;;;;;22.50;13.20;;;3.40;99.90;;;;;;5036751;28;20458;-36
2022/12/11 13:03:14;;;;;;;21.10;12.70;;;3.30;99.90;;;;;;5041813;28;20448;-36